createdAt,value
2018-12-12T00:00:52.345Z,40.97
2018-12-12T00:03:19.816Z,35.80
2018-12-12T00:05:47.282Z,34.93
2018-12-12T00:08:14.713Z,42.60
2018-12-12T00:10:42.163Z,40.90
2018-12-12T00:13:09.623Z,33.07
2018-12-12T00:15:37.130Z,38.73
2018-12-12T00:18:04.556Z,37.07
2018-12-12T00:20:31.980Z,37.93
2018-12-12T00:22:59.438Z,35.67
2018-12-12T00:25:35.693Z,35.20
2018-12-12T00:28:03.081Z,40.83
2018-12-12T00:30:30.550Z,38.80
2018-12-12T00:32:58.023Z,35.17
2018-12-12T00:35:25.517Z,31.60
2018-12-12T00:37:53.047Z,40.07
2018-12-12T00:40:20.501Z,38.00
2018-12-12T00:42:47.946Z,41.47
2018-12-12T00:45:15.386Z,39.43
2018-12-12T00:47:42.837Z,41.53
2018-12-12T00:50:11.424Z,38.37
2018-12-12T00:52:38.946Z,34.47
2018-12-12T00:55:06.401Z,35.97
2018-12-12T00:57:33.881Z,34.07
2018-12-12T01:00:01.379Z,34.47
2018-12-12T01:02:28.860Z,35.87
2018-12-12T01:04:56.330Z,39.17
2018-12-12T01:07:23.821Z,38.23
2018-12-12T01:09:51.304Z,40.77
2018-12-12T01:12:18.851Z,35.13
2018-12-12T01:14:46.236Z,43.70
2018-12-12T01:17:13.711Z,39.83
2018-12-12T01:19:41.192Z,39.37
2018-12-12T01:22:08.679Z,39.03
2018-12-12T01:24:37.288Z,34.47
2018-12-12T01:27:04.772Z,39.00
2018-12-12T01:29:32.204Z,28.90
2018-12-12T01:31:59.665Z,37.00
2018-12-12T01:34:27.118Z,35.90
2018-12-12T01:36:54.573Z,30.80
2018-12-12T01:39:21.990Z,29.50
2018-12-12T01:41:49.488Z,31.67
2018-12-12T01:44:16.935Z,28.43
2018-12-12T01:46:44.439Z,35.27
2018-12-12T01:49:11.905Z,34.77
2018-12-12T01:51:39.388Z,32.27
2018-12-12T01:54:08.458Z,28.07
2018-12-12T01:56:35.797Z,30.23
2018-12-12T01:59:03.223Z,28.07
2018-12-12T02:01:30.649Z,30.70
2018-12-12T02:03:58.501Z,31.40
2018-12-12T02:06:25.945Z,25.53
2018-12-12T02:08:53.380Z,28.20
2018-12-12T02:11:20.831Z,25.63
2018-12-12T02:13:51.535Z,28.70
2018-12-12T02:16:19.033Z,28.03
2018-12-12T02:18:46.506Z,29.03
2018-12-12T02:21:13.936Z,29.63
2018-12-12T02:23:41.388Z,30.73
2018-12-12T02:26:08.838Z,30.43
2018-12-12T02:28:36.352Z,31.53
2018-12-12T02:31:03.827Z,29.43
2018-12-12T02:33:31.313Z,36.60
2018-12-12T02:35:58.831Z,36.00
2018-12-12T02:38:26.320Z,39.53
2018-12-12T02:40:53.707Z,43.57
2018-12-12T02:43:21.169Z,36.07
2018-12-12T02:45:49.707Z,33.97
2018-12-12T02:48:17.215Z,33.47
2018-12-12T02:50:44.654Z,32.70
2018-12-12T02:53:12.185Z,42.50
2018-12-12T02:55:39.563Z,47.47
2018-12-12T02:58:07.022Z,38.30
2018-12-12T03:00:34.508Z,33.70
2018-12-12T03:03:01.990Z,33.13
2018-12-12T03:05:29.478Z,29.40
2018-12-12T03:07:56.910Z,28.37
2018-12-12T03:10:24.362Z,31.83
2018-12-12T03:12:51.824Z,31.57
2018-12-12T03:15:19.255Z,34.90
2018-12-12T03:17:46.679Z,41.00
2018-12-12T03:20:14.139Z,32.97
2018-12-12T03:25:37.187Z,41.27
2018-12-12T03:27:58.915Z,33.63
2018-12-12T03:30:28.840Z,32.27
2018-12-12T03:33:04.882Z,32.53
2018-12-12T03:35:35.045Z,32.00
2018-12-12T03:38:02.487Z,26.80
2018-12-12T03:40:51.319Z,31.80
2018-12-12T03:43:50.426Z,36.47
2018-12-12T03:46:17.881Z,31.87
2018-12-12T03:48:45.338Z,29.87
2018-12-12T03:51:12.756Z,29.50
2018-12-12T03:53:40.215Z,28.93
2018-12-12T03:56:07.655Z,31.10
2018-12-12T03:58:35.070Z,32.53
2018-12-12T04:01:02.558Z,29.03
2018-12-12T04:03:31.093Z,26.67
2018-12-12T04:05:58.543Z,26.50
2018-12-12T04:08:25.974Z,29.23
2018-12-12T04:10:53.468Z,26.17
2018-12-12T04:13:20.886Z,30.30
2018-12-12T04:15:48.352Z,23.40
2018-12-12T04:18:15.836Z,25.60
2018-12-12T04:20:43.360Z,29.70
2018-12-12T04:23:10.809Z,29.60
2018-12-12T04:25:38.266Z,25.53
2018-12-12T04:28:05.692Z,26.37
2018-12-12T04:30:33.174Z,23.87
2018-12-12T04:33:00.589Z,31.70
2018-12-12T04:35:28.013Z,34.77
2018-12-12T04:37:55.466Z,32.23
2018-12-12T04:40:22.911Z,31.00
2018-12-12T04:42:50.362Z,35.67
2018-12-12T04:45:17.801Z,34.97
2018-12-12T04:47:45.268Z,32.00
2018-12-12T04:50:12.687Z,41.43
2018-12-12T04:52:40.165Z,33.70
2018-12-12T04:55:07.614Z,36.43
2018-12-12T04:57:35.119Z,42.50
2018-12-12T05:00:02.559Z,34.73
2018-12-12T05:02:29.997Z,38.23
2018-12-12T05:04:57.438Z,37.33
2018-12-12T05:07:24.892Z,38.50
2018-12-12T05:09:52.349Z,42.13
2018-12-12T05:12:19.811Z,46.07
2018-12-12T05:14:47.288Z,52.23
2018-12-12T05:17:14.751Z,41.70
2018-12-12T05:19:42.215Z,41.60
2018-12-12T05:22:09.709Z,37.80
2018-12-12T05:24:37.121Z,38.80
2018-12-12T05:27:04.632Z,44.73
2018-12-12T05:29:32.049Z,36.53
2018-12-12T05:31:59.481Z,40.93
2018-12-12T05:34:26.987Z,35.37
2018-12-12T05:36:57.120Z,34.83
2018-12-12T05:39:24.548Z,27.13
2018-12-12T05:41:52.070Z,29.40
2018-12-12T05:44:19.526Z,32.57
2018-12-12T05:46:46.963Z,30.23
2018-12-12T05:49:14.432Z,27.37
2018-12-12T05:51:41.874Z,30.40
2018-12-12T05:54:09.353Z,28.07
2018-12-12T05:56:36.813Z,33.00
2018-12-12T05:59:04.259Z,28.07
2018-12-12T06:01:31.766Z,27.80
2018-12-12T06:03:59.178Z,34.63
2018-12-12T06:06:26.606Z,29.73
2018-12-12T06:08:54.080Z,32.83
2018-12-12T06:11:21.498Z,42.83
2018-12-12T06:13:48.927Z,33.63
2018-12-12T06:16:16.356Z,27.20
2018-12-12T06:18:43.801Z,37.27
2018-12-12T06:21:11.255Z,34.97
2018-12-12T06:23:38.701Z,27.57
2018-12-12T06:26:06.198Z,29.63
2018-12-12T06:28:33.630Z,28.23
2018-12-12T06:31:01.120Z,30.07
2018-12-12T06:33:28.564Z,27.57
2018-12-12T06:35:56.022Z,25.53
2018-12-12T06:38:23.507Z,27.70
2018-12-12T06:40:50.970Z,31.63
2018-12-12T06:43:18.372Z,27.37
2018-12-12T06:45:45.800Z,30.30
2018-12-12T06:48:13.262Z,28.17
2018-12-12T06:50:41.828Z,30.63
2018-12-12T06:53:09.344Z,30.70
2018-12-12T06:55:36.769Z,25.27
2018-12-12T06:58:04.217Z,26.33
2018-12-12T07:00:31.713Z,26.23
2018-12-12T07:02:59.218Z,31.57
2018-12-12T07:05:26.703Z,27.97
2018-12-12T07:07:54.208Z,33.53
2018-12-12T07:10:21.651Z,29.37
2018-12-12T07:12:49.096Z,37.37
2018-12-12T07:15:16.573Z,29.10
2018-12-12T07:17:44.011Z,38.37
2018-12-12T07:20:11.483Z,41.40
2018-12-12T07:22:38.934Z,43.23
2018-12-12T07:25:06.374Z,36.17
2018-12-12T07:27:33.821Z,46.43
2018-12-12T07:30:01.247Z,37.10
2018-12-12T07:32:28.699Z,40.57
2018-12-12T07:34:56.129Z,37.77
2018-12-12T07:37:23.545Z,36.33
2018-12-12T07:39:51.028Z,33.47
2018-12-12T07:42:18.482Z,32.60
2018-12-12T07:44:45.936Z,29.90
2018-12-12T07:47:14.430Z,29.17
2018-12-12T07:49:40.846Z,31.50
2018-12-12T07:52:08.287Z,37.03
2018-12-12T07:54:35.743Z,40.37
2018-12-12T07:57:03.172Z,30.87
2018-12-12T07:59:30.630Z,34.50
2018-12-12T08:01:58.076Z,27.80
2018-12-12T08:04:26.691Z,32.00
2018-12-12T08:06:54.133Z,31.07
2018-12-12T08:09:21.614Z,27.77
2018-12-12T08:11:49.132Z,61.00
2018-12-12T08:14:16.614Z,52.77
2018-12-12T08:16:44.049Z,64.23
2018-12-12T08:19:11.534Z,66.93
2018-12-12T08:21:38.956Z,95.10
2018-12-12T08:24:06.376Z,120.60
2018-12-12T08:26:33.843Z,120.60
2018-12-12T08:29:01.312Z,97.50
2018-12-12T08:31:28.735Z,51.20
2018-12-12T08:33:56.201Z,136.97
2018-12-12T08:36:23.620Z,223.87
2018-12-12T08:38:51.076Z,144.47
2018-12-12T08:41:18.525Z,68.03
2018-12-12T08:43:45.977Z,41.87
2018-12-12T08:46:13.445Z,76.23
2018-12-12T08:48:40.868Z,84.50
2018-12-12T08:51:08.374Z,115.37
2018-12-12T08:53:35.780Z,102.50
2018-12-12T08:56:03.474Z,105.03
2018-12-12T08:58:30.742Z,38.90
2018-12-12T09:00:58.148Z,80.93
2018-12-12T09:03:25.592Z,57.07
2018-12-12T09:05:53.055Z,52.17
2018-12-12T09:08:20.474Z,45.43
2018-12-12T09:10:47.927Z,96.27
2018-12-12T09:13:15.464Z,67.50
2018-12-12T09:15:42.893Z,54.87
2018-12-12T09:18:10.335Z,47.10
2018-12-12T09:20:37.797Z,73.93
2018-12-12T09:23:05.388Z,96.00
2018-12-12T09:25:32.791Z,34.93
2018-12-12T09:28:00.235Z,85.00
2018-12-12T09:30:27.686Z,53.07
2018-12-12T09:32:55.126Z,106.23
2018-12-12T09:35:22.581Z,124.37
2018-12-12T09:37:50.009Z,114.43
2018-12-12T09:40:17.533Z,52.33
2018-12-12T09:42:44.962Z,112.57
2018-12-12T09:45:12.443Z,55.10
2018-12-12T09:47:39.872Z,59.63
2018-12-12T09:50:07.360Z,101.43
2018-12-12T09:52:34.834Z,74.07
2018-12-12T09:55:02.374Z,81.93
2018-12-12T09:57:29.855Z,43.17
2018-12-12T09:59:57.337Z,94.73
2018-12-12T10:02:25.046Z,88.97
2018-12-12T10:04:52.562Z,167.67
2018-12-12T10:07:20.029Z,61.83
2018-12-12T10:09:47.508Z,133.50
2018-12-12T10:12:15.030Z,86.43
2018-12-12T10:14:42.494Z,94.07
2018-12-12T10:17:10.024Z,126.37
2018-12-12T10:19:37.444Z,174.60
2018-12-12T10:22:05.059Z,82.33
2018-12-12T10:24:32.564Z,70.03
2018-12-12T10:26:59.959Z,64.73
2018-12-12T10:29:27.430Z,78.20
2018-12-12T10:31:54.895Z,75.40
2018-12-12T10:34:22.692Z,85.33
2018-12-12T10:36:50.201Z,74.10
2018-12-12T10:39:17.628Z,181.20
2018-12-12T10:41:45.103Z,161.50
2018-12-12T10:44:12.583Z,334.97
2018-12-12T10:46:40.076Z,435.37
2018-12-12T10:49:07.518Z,259.03
2018-12-12T10:51:34.973Z,187.20
2018-12-12T10:54:02.488Z,154.37
2018-12-12T10:56:30.929Z,167.10
2018-12-12T10:58:58.377Z,299.27
2018-12-12T11:01:28.619Z,216.63
2018-12-12T11:03:56.059Z,180.73
2018-12-12T11:06:23.511Z,269.37
2018-12-12T11:08:51.059Z,312.17
2018-12-12T11:11:18.598Z,266.13
2018-12-12T11:13:46.022Z,376.33
2018-12-12T11:16:13.530Z,201.87
2018-12-12T11:18:41.054Z,200.07
2018-12-12T11:21:08.541Z,169.33
2018-12-12T11:23:36.011Z,260.03
2018-12-12T11:26:03.428Z,164.23
2018-12-12T11:28:30.888Z,79.77
2018-12-12T11:30:58.349Z,128.00
2018-12-12T11:33:25.822Z,92.57
2018-12-12T11:35:53.281Z,123.97
2018-12-12T11:38:21.751Z,79.97
2018-12-12T11:40:49.208Z,131.23
2018-12-12T11:43:16.660Z,106.57
2018-12-12T11:45:44.119Z,48.03
2018-12-12T11:48:11.895Z,53.33
2018-12-12T11:50:40.529Z,180.50
2018-12-12T11:53:07.985Z,93.23
2018-12-12T11:55:35.428Z,96.33
2018-12-12T11:58:03.911Z,102.20
2018-12-12T12:00:32.692Z,264.57
2018-12-12T12:03:00.112Z,189.63
2018-12-12T12:05:27.978Z,181.90
2018-12-12T12:07:57.409Z,227.23
2018-12-12T12:10:26.006Z,106.63
2018-12-12T12:12:53.501Z,169.40
2018-12-12T12:15:24.312Z,93.13
2018-12-12T12:17:51.804Z,159.63
2018-12-12T12:20:19.232Z,148.47
2018-12-12T12:22:46.702Z,180.73
2018-12-12T12:25:14.197Z,103.23
2018-12-12T12:27:41.656Z,86.97
2018-12-12T12:30:10.667Z,110.93
2018-12-12T12:32:38.041Z,153.23
2018-12-12T12:35:05.560Z,95.43
2018-12-12T12:37:33.014Z,129.23
2018-12-12T12:40:00.583Z,136.07
2018-12-12T12:42:28.030Z,209.83
2018-12-12T12:44:58.326Z,101.57
2018-12-12T12:47:25.812Z,144.50
2018-12-12T12:49:53.293Z,123.77
2018-12-12T12:52:22.223Z,124.50
2018-12-12T12:54:50.738Z,134.53
2018-12-12T12:57:18.170Z,141.67
2018-12-12T12:59:45.749Z,114.93
2018-12-12T13:02:13.177Z,103.93
2018-12-12T13:04:40.629Z,84.27
2018-12-12T13:07:08.351Z,99.43
2018-12-12T13:09:35.879Z,82.93
2018-12-12T13:12:03.357Z,86.07
2018-12-12T13:14:30.683Z,79.20
2018-12-12T13:16:58.141Z,83.77
2018-12-12T13:19:25.583Z,73.83
2018-12-12T13:21:53.066Z,89.57
2018-12-12T13:24:20.493Z,87.80
2018-12-12T13:26:53.377Z,85.80
2018-12-12T13:29:15.421Z,97.87
2018-12-12T13:31:42.848Z,121.97
2018-12-12T13:34:16.287Z,80.13
2018-12-12T13:36:38.797Z,116.90
2018-12-12T13:39:06.256Z,91.13
2018-12-12T13:41:33.725Z,100.90
2018-12-12T13:44:02.719Z,137.03
2018-12-12T13:46:30.207Z,121.17
2018-12-12T13:48:57.629Z,125.20
2018-12-12T13:51:30.453Z,174.33
2018-12-12T13:53:57.946Z,133.03
2018-12-12T13:56:25.415Z,169.20
2018-12-12T13:58:52.860Z,164.60
2018-12-12T14:01:23.197Z,126.27
2018-12-12T14:03:50.669Z,141.50
2018-12-12T14:06:18.118Z,144.80
2018-12-12T14:08:45.595Z,155.50
2018-12-12T14:11:13.021Z,181.93
2018-12-12T14:13:40.497Z,153.00
2018-12-12T14:16:07.945Z,133.60
2018-12-12T14:18:35.359Z,172.57
2018-12-12T14:21:02.785Z,185.23
2018-12-12T14:23:30.279Z,162.40
2018-12-12T14:26:09.125Z,150.43
2018-12-12T14:28:36.621Z,150.47
2018-12-12T14:31:04.055Z,164.27
2018-12-12T14:33:31.529Z,151.23
2018-12-12T14:36:01.597Z,175.53
2018-12-12T14:38:30.391Z,166.47
2018-12-12T14:40:57.857Z,186.47
2018-12-12T14:43:25.337Z,204.77
2018-12-12T14:45:52.809Z,168.13
2018-12-12T14:48:21.224Z,204.23
2018-12-12T14:50:48.702Z,205.80
2018-12-12T14:53:16.213Z,179.03
2018-12-12T14:55:43.699Z,188.13
2018-12-12T14:58:11.165Z,170.87
2018-12-12T15:00:38.647Z,162.90
2018-12-12T15:03:06.127Z,145.10
2018-12-12T15:05:33.565Z,170.83
2018-12-12T15:08:00.976Z,168.93
2018-12-12T15:10:28.457Z,151.20
2018-12-12T15:12:55.979Z,162.10
2018-12-12T15:15:23.644Z,181.03
2018-12-12T15:17:51.071Z,183.57
2018-12-12T15:20:18.531Z,161.33
2018-12-12T15:22:45.959Z,173.87
2018-12-12T15:25:13.460Z,146.07
2018-12-12T15:27:40.893Z,152.20
2018-12-12T15:30:08.351Z,146.93
2018-12-12T15:32:35.804Z,151.97
2018-12-12T15:35:03.238Z,154.87
2018-12-12T15:37:30.700Z,141.37
2018-12-12T15:39:58.159Z,155.33
2018-12-12T15:42:25.606Z,149.23
2018-12-12T15:44:53.027Z,146.87
2018-12-12T15:47:20.499Z,146.93
2018-12-12T15:49:47.913Z,164.23
2018-12-12T15:52:15.365Z,144.13
2018-12-12T15:54:42.807Z,147.47
2018-12-12T15:57:10.217Z,141.33
2018-12-12T15:59:37.648Z,146.83
2018-12-12T16:02:05.108Z,170.23
2018-12-12T16:04:32.549Z,149.87
2018-12-12T16:07:00.026Z,184.93
2018-12-12T16:09:27.480Z,177.73
2018-12-12T16:11:54.934Z,161.43
2018-12-12T16:14:22.356Z,163.23
2018-12-12T16:16:49.794Z,168.30
2018-12-12T16:19:17.232Z,147.53
2018-12-12T16:21:44.684Z,162.77
2018-12-12T16:24:12.143Z,170.93
2018-12-12T16:26:39.595Z,153.05
2018-12-12T16:29:07.028Z,155.13
2018-12-12T16:31:34.453Z,147.67
2018-12-12T16:34:01.901Z,152.97
2018-12-12T16:36:29.298Z,147.03
2018-12-12T16:38:56.788Z,132.43
2018-12-12T16:41:24.178Z,146.57
2018-12-12T16:43:51.631Z,165.63
2018-12-12T16:46:19.083Z,149.80
2018-12-12T16:48:46.526Z,125.70
2018-12-12T16:51:13.927Z,127.15
2018-12-12T16:53:41.367Z,125.57
2018-12-12T16:56:08.850Z,156.97
2018-12-12T16:58:36.216Z,146.83
2018-12-12T17:01:03.658Z,150.83
2018-12-12T17:03:31.070Z,127.23
2018-12-12T17:05:58.510Z,143.30
2018-12-12T17:08:25.965Z,132.23
2018-12-12T17:10:53.381Z,148.07
2018-12-12T17:13:20.779Z,143.10
2018-12-12T17:15:48.209Z,153.03
2018-12-12T17:18:15.668Z,179.43
2018-12-12T17:20:43.095Z,157.67
2018-12-12T17:23:10.522Z,182.33
2018-12-12T17:25:37.960Z,160.70
2018-12-12T17:28:05.384Z,147.77
2018-12-12T17:30:32.869Z,183.53
2018-12-12T17:33:00.258Z,154.23
2018-12-12T17:35:27.696Z,182.47
2018-12-12T17:37:55.117Z,134.63
2018-12-12T17:40:22.576Z,126.73
2018-12-12T17:42:50.010Z,116.43
2018-12-12T17:45:17.452Z,134.13
2018-12-12T17:47:44.890Z,126.67
2018-12-12T17:50:12.311Z,140.87
2018-12-12T17:52:39.772Z,146.90
2018-12-12T17:55:07.492Z,126.53
2018-12-12T17:57:34.866Z,118.43
2018-12-12T18:00:02.338Z,106.83
2018-12-12T18:02:29.757Z,114.57
2018-12-12T18:04:57.209Z,106.73
2018-12-12T18:07:24.727Z,107.53
2018-12-12T18:09:52.162Z,106.53
2018-12-12T18:12:19.623Z,95.37
2018-12-12T18:14:47.078Z,101.13
2018-12-12T18:17:14.512Z,81.57
2018-12-12T18:19:41.947Z,78.40
2018-12-12T18:22:09.410Z,87.83
2018-12-12T18:24:36.829Z,87.20
2018-12-12T18:27:04.268Z,95.70
2018-12-12T18:29:31.727Z,86.93
2018-12-12T18:31:59.154Z,78.17
2018-12-12T18:34:26.602Z,68.87
2018-12-12T18:36:54.042Z,67.83
2018-12-12T18:39:22.776Z,65.73
2018-12-12T18:41:50.217Z,63.07
2018-12-12T18:44:17.643Z,56.37
2018-12-12T18:46:45.092Z,55.00
2018-12-12T18:49:12.584Z,53.07
2018-12-12T18:51:39.929Z,47.87
2018-12-12T18:54:07.410Z,51.17
2018-12-12T18:56:34.813Z,48.90
2018-12-12T18:59:02.367Z,49.23
2018-12-12T19:01:29.729Z,48.17
2018-12-12T19:03:57.197Z,44.07
2018-12-12T19:06:24.603Z,45.90
2018-12-12T19:08:52.060Z,47.30
2018-12-12T19:11:19.483Z,49.03
2018-12-12T19:13:46.937Z,41.17
2018-12-12T19:16:14.387Z,42.33
2018-12-12T19:18:41.874Z,39.60
2018-12-12T19:21:09.407Z,42.63
2018-12-12T19:23:36.931Z,41.23
2018-12-12T19:26:06.854Z,44.63
2018-12-12T19:28:34.275Z,37.93
2018-12-12T19:31:01.716Z,43.00
2018-12-12T19:33:29.141Z,41.67
2018-12-12T19:35:56.578Z,41.63
2018-12-12T19:38:24.427Z,39.80
2018-12-12T19:40:51.865Z,41.57
2018-12-12T19:43:21.715Z,45.87
2018-12-12T19:45:49.167Z,43.77
2018-12-12T19:48:16.584Z,45.13
2018-12-12T19:50:44.017Z,46.07
2018-12-12T19:53:11.450Z,46.87
2018-12-12T19:55:38.898Z,46.77
2018-12-12T19:58:06.339Z,50.23
2018-12-12T20:00:33.763Z,47.70
2018-12-12T20:03:01.208Z,46.20
2018-12-12T20:05:28.660Z,49.47
2018-12-12T20:07:56.104Z,48.57
2018-12-12T20:10:23.528Z,45.90
2018-12-12T20:12:50.962Z,47.23
2018-12-12T20:15:36.538Z,49.67
2018-12-12T20:18:03.995Z,48.43
2018-12-12T20:20:31.408Z,49.23
2018-12-12T20:22:58.874Z,50.00
2018-12-12T20:25:26.334Z,46.93
2018-12-12T20:27:53.756Z,46.57
2018-12-12T20:30:21.193Z,44.10
2018-12-12T20:32:48.652Z,45.50
2018-12-12T20:35:16.087Z,45.63
2018-12-12T20:37:43.532Z,48.43
2018-12-12T20:40:10.990Z,47.13
2018-12-12T20:42:38.420Z,55.00
2018-12-12T20:45:05.864Z,54.47
2018-12-12T20:47:33.297Z,55.37
2018-12-12T20:50:00.776Z,56.00
2018-12-12T20:52:28.218Z,55.13
2018-12-12T20:54:58.095Z,51.70
2018-12-12T20:57:25.581Z,59.37
2018-12-12T20:59:53.004Z,53.70
2018-12-12T21:02:20.415Z,57.93
2018-12-12T21:04:47.848Z,52.07
2018-12-12T21:07:15.408Z,56.87
2018-12-12T21:09:42.848Z,51.93
2018-12-12T21:12:10.264Z,53.33
2018-12-12T21:14:37.730Z,54.87
2018-12-12T21:17:05.128Z,52.13
2018-12-12T21:19:32.627Z,52.77
2018-12-12T21:22:00.070Z,54.10
2018-12-12T21:24:27.458Z,48.30
2018-12-12T21:26:54.903Z,54.43
2018-12-12T21:29:22.349Z,57.20
2018-12-12T21:31:49.819Z,60.47
2018-12-12T21:34:17.249Z,58.10
2018-12-12T21:36:44.684Z,63.83
2018-12-12T21:39:12.145Z,67.03
2018-12-12T21:41:42.189Z,58.13
2018-12-12T21:44:18.815Z,56.60
2018-12-12T21:46:46.243Z,57.20
2018-12-12T21:49:14.354Z,64.33
2018-12-12T21:51:41.794Z,60.60
2018-12-12T21:54:20.461Z,62.73
2018-12-12T21:57:00.277Z,67.43
2018-12-12T21:59:27.723Z,65.90
2018-12-12T22:01:55.141Z,74.80
2018-12-12T22:04:22.608Z,65.83
2018-12-12T22:06:50.066Z,76.43
2018-12-12T22:09:20.045Z,70.33
2018-12-12T22:11:47.490Z,78.30
2018-12-12T22:14:14.925Z,67.00
2018-12-12T22:16:42.408Z,67.83
2018-12-12T22:19:09.906Z,65.67
2018-12-12T22:21:37.329Z,67.20
2018-12-12T22:24:04.784Z,64.80
2018-12-12T22:26:32.205Z,70.47
2018-12-12T22:28:59.712Z,70.60
2018-12-12T22:31:29.868Z,66.97
2018-12-12T22:34:02.432Z,67.47
2018-12-12T22:36:59.597Z,67.83
2018-12-12T22:39:27.044Z,62.20
2018-12-12T22:41:54.522Z,67.90
2018-12-12T22:44:21.962Z,62.20
2018-12-12T22:46:49.376Z,61.93
2018-12-12T22:49:16.813Z,70.03
2018-12-12T22:51:44.279Z,60.67
2018-12-12T22:54:11.713Z,58.33
2018-12-12T22:56:39.183Z,57.30
2018-12-12T22:59:16.060Z,58.13
2018-12-12T23:01:41.508Z,51.93
2018-12-12T23:04:08.959Z,60.87
2018-12-12T23:06:36.463Z,55.23
2018-12-12T23:09:03.834Z,55.03
2018-12-12T23:11:31.282Z,51.03
2018-12-12T23:13:58.741Z,54.70
2018-12-12T23:16:26.209Z,49.87
2018-12-12T23:18:53.626Z,51.53
2018-12-12T23:21:21.030Z,46.70
2018-12-12T23:23:48.476Z,45.97
2018-12-12T23:26:15.906Z,45.63
2018-12-12T23:28:43.353Z,47.77
2018-12-12T23:31:10.807Z,43.00
2018-12-12T23:33:40.885Z,45.27
2018-12-12T23:36:09.717Z,43.93
2018-12-12T23:38:41.227Z,47.90
2018-12-12T23:41:04.547Z,41.80
2018-12-12T23:43:31.997Z,45.53
2018-12-12T23:45:59.415Z,48.47
2018-12-12T23:48:26.843Z,44.13
2018-12-12T23:50:54.292Z,43.13
2018-12-12T23:53:35.015Z,38.20
2018-12-12T23:56:05.173Z,42.10
2018-12-12T23:58:32.613Z,46.70
